sensor_id;sensor_type;location;lat;lon;timestamp;temperature;humidity
58809;DHT22;44579;51.672;7.834;2022-11-15T00:01:15;9.20;83.00
58809;DHT22;44579;51.672;7.834;2022-11-15T00:04:02;9.20;83.00
58809;DHT22;44579;51.672;7.834;2022-11-15T00:06:48;9.30;83.10
58809;DHT22;44579;51.672;7.834;2022-11-15T00:09:34;9.30;83.10
58809;DHT22;44579;51.672;7.834;2022-11-15T00:12:19;9.30;83.10
58809;DHT22;44579;51.672;7.834;2022-11-15T00:15:06;9.30;83.00
58809;DHT22;44579;51.672;7.834;2022-11-15T00:17:52;9.30;83.10
58809;DHT22;44579;51.672;7.834;2022-11-15T00:20:37;9.20;83.00
58809;DHT22;44579;51.672;7.834;2022-11-15T00:23:23;9.30;83.10
58809;DHT22;44579;51.672;7.834;2022-11-15T00:26:13;9.20;83.10
58809;DHT22;44579;51.672;7.834;2022-11-15T00:28:58;9.20;83.10
58809;DHT22;44579;51.672;7.834;2022-11-15T00:31:44;9.20;83.20
58809;DHT22;44579;51.672;7.834;2022-11-15T00:34:30;9.20;83.10
58809;DHT22;44579;51.672;7.834;2022-11-15T00:37:15;9.20;83.10
58809;DHT22;44579;51.672;7.834;2022-11-15T00:40:01;9.20;83.10
58809;DHT22;44579;51.672;7.834;2022-11-15T00:42:47;9.20;83.10
58809;DHT22;44579;51.672;7.834;2022-11-15T00:45:32;9.20;83.10
58809;DHT22;44579;51.672;7.834;2022-11-15T00:48:18;9.20;83.10
58809;DHT22;44579;51.672;7.834;2022-11-15T00:51:04;9.20;83.10
58809;DHT22;44579;51.672;7.834;2022-11-15T00:53:50;9.10;83.10
58809;DHT22;44579;51.672;7.834;2022-11-15T00:56:35;9.10;83.20
58809;DHT22;44579;51.672;7.834;2022-11-15T00:59:21;9.10;83.30
58809;DHT22;44579;51.672;7.834;2022-11-15T01:02:07;9.10;83.40
58809;DHT22;44579;51.672;7.834;2022-11-15T01:04:53;9.00;83.50
58809;DHT22;44579;51.672;7.834;2022-11-15T01:07:39;9.00;83.50
58809;DHT22;44579;51.672;7.834;2022-11-15T01:10:27;9.00;83.70
58809;DHT22;44579;51.672;7.834;2022-11-15T01:13:13;9.00;83.70
58809;DHT22;44579;51.672;7.834;2022-11-15T01:16:10;9.00;83.70
58809;DHT22;44579;51.672;7.834;2022-11-15T01:18:56;9.00;83.80
58809;DHT22;44579;51.672;7.834;2022-11-15T01:21:42;9.10;83.80
58809;DHT22;44579;51.672;7.834;2022-11-15T01:24:29;9.10;83.80
58809;DHT22;44579;51.672;7.834;2022-11-15T01:27:14;9.20;83.80
58809;DHT22;44579;51.672;7.834;2022-11-15T01:30:00;9.20;83.80
58809;DHT22;44579;51.672;7.834;2022-11-15T01:32:46;9.20;83.80
58809;DHT22;44579;51.672;7.834;2022-11-15T01:35:31;9.20;83.80
58809;DHT22;44579;51.672;7.834;2022-11-15T01:38:17;9.30;83.80
58809;DHT22;44579;51.672;7.834;2022-11-15T01:41:03;9.30;83.80
58809;DHT22;44579;51.672;7.834;2022-11-15T01:43:53;9.30;83.90
58809;DHT22;44579;51.672;7.834;2022-11-15T01:46:39;9.30;83.90
58809;DHT22;44579;51.672;7.834;2022-11-15T01:49:33;9.40;83.90
58809;DHT22;44579;51.672;7.834;2022-11-15T01:52:22;9.40;83.90
58809;DHT22;44579;51.672;7.834;2022-11-15T01:55:16;9.40;84.10
58809;DHT22;44579;51.672;7.834;2022-11-15T01:58:04;9.40;84.10
58809;DHT22;44579;51.672;7.834;2022-11-15T02:00:50;9.40;84.90
58809;DHT22;44579;51.672;7.834;2022-11-15T02:03:45;9.40;84.10
58809;DHT22;44579;51.672;7.834;2022-11-15T02:06:31;9.40;84.10
58809;DHT22;44579;51.672;7.834;2022-11-15T02:09:17;9.40;84.10
58809;DHT22;44579;51.672;7.834;2022-11-15T02:12:03;9.50;84.30
58809;DHT22;44579;51.672;7.834;2022-11-15T02:14:52;9.50;84.30
58809;DHT22;44579;51.672;7.834;2022-11-15T02:18:08;9.60;84.40
58809;DHT22;44579;51.672;7.834;2022-11-15T02:31:47;9.90;84.30
58809;DHT22;44579;51.672;7.834;2022-11-15T02:34:09;10.00;84.20
58809;DHT22;44579;51.672;7.834;2022-11-15T02:37:21;10.00;84.10
58809;DHT22;44579;51.672;7.834;2022-11-15T02:43:28;10.10;84.20
58809;DHT22;44579;51.672;7.834;2022-11-15T02:46:43;10.10;84.10
58809;DHT22;44579;51.672;7.834;2022-11-15T02:49:54;10.20;84.20
58809;DHT22;44579;51.672;7.834;2022-11-15T02:52:41;10.30;84.30
58809;DHT22;44579;51.672;7.834;2022-11-15T02:55:33;10.30;84.40
58809;DHT22;44579;51.672;7.834;2022-11-15T02:58:35;10.30;84.50
58809;DHT22;44579;51.672;7.834;2022-11-15T03:01:38;10.40;84.60
58809;DHT22;44579;51.672;7.834;2022-11-15T03:04:42;10.40;84.70
58809;DHT22;44579;51.672;7.834;2022-11-15T03:07:34;10.40;84.80
58809;DHT22;44579;51.672;7.834;2022-11-15T03:10:42;10.40;84.80
58809;DHT22;44579;51.672;7.834;2022-11-15T03:17:06;10.60;84.90
58809;DHT22;44579;51.672;7.834;2022-11-15T03:19:59;10.60;84.90
58809;DHT22;44579;51.672;7.834;2022-11-15T03:22:47;10.60;85.00
58809;DHT22;44579;51.672;7.834;2022-11-15T03:25:34;10.60;85.00
58809;DHT22;44579;51.672;7.834;2022-11-15T03:28:25;10.70;85.00
58809;DHT22;44579;51.672;7.834;2022-11-15T03:31:15;10.70;85.00
58809;DHT22;44579;51.672;7.834;2022-11-15T03:34:43;10.70;85.10
58809;DHT22;44579;51.672;7.834;2022-11-15T03:37:37;10.70;85.30
58809;DHT22;44579;51.672;7.834;2022-11-15T03:40:54;10.70;85.40
58809;DHT22;44579;51.672;7.834;2022-11-15T03:43:52;10.70;85.50
58809;DHT22;44579;51.672;7.834;2022-11-15T03:47:36;10.70;85.60
58809;DHT22;44579;51.672;7.834;2022-11-15T03:50:07;10.70;85.70
58809;DHT22;44579;51.672;7.834;2022-11-15T03:52:54;10.60;85.70
58809;DHT22;44579;51.672;7.834;2022-11-15T03:55:40;10.70;85.80
58809;DHT22;44579;51.672;7.834;2022-11-15T03:58:25;10.70;85.80
58809;DHT22;44579;51.672;7.834;2022-11-15T04:01:11;10.70;85.90
58809;DHT22;44579;51.672;7.834;2022-11-15T04:03:56;10.70;86.00
58809;DHT22;44579;51.672;7.834;2022-11-15T04:06:42;10.70;86.00
58809;DHT22;44579;51.672;7.834;2022-11-15T04:09:27;10.60;86.00
58809;DHT22;44579;51.672;7.834;2022-11-15T04:12:13;10.60;86.00
58809;DHT22;44579;51.672;7.834;2022-11-15T04:15:18;10.60;86.10
58809;DHT22;44579;51.672;7.834;2022-11-15T04:18:04;10.60;86.20
58809;DHT22;44579;51.672;7.834;2022-11-15T04:20:50;10.60;86.20
58809;DHT22;44579;51.672;7.834;2022-11-15T04:23:54;10.60;86.30
58809;DHT22;44579;51.672;7.834;2022-11-15T04:26:40;10.60;86.30
58809;DHT22;44579;51.672;7.834;2022-11-15T04:29:28;10.60;86.30
58809;DHT22;44579;51.672;7.834;2022-11-15T04:32:20;10.60;86.30
58809;DHT22;44579;51.672;7.834;2022-11-15T04:35:06;10.60;86.30
58809;DHT22;44579;51.672;7.834;2022-11-15T04:37:52;10.60;86.20
58809;DHT22;44579;51.672;7.834;2022-11-15T04:40:38;10.50;86.20
58809;DHT22;44579;51.672;7.834;2022-11-15T04:43:25;10.60;86.30
58809;DHT22;44579;51.672;7.834;2022-11-15T04:46:10;10.60;86.30
58809;DHT22;44579;51.672;7.834;2022-11-15T04:48:56;10.60;86.30
58809;DHT22;44579;51.672;7.834;2022-11-15T04:51:43;10.60;86.20
58809;DHT22;44579;51.672;7.834;2022-11-15T04:54:29;10.50;86.10
58809;DHT22;44579;51.672;7.834;2022-11-15T04:57:15;10.60;86.10
58809;DHT22;44579;51.672;7.834;2022-11-15T05:00:01;10.50;86.10
58809;DHT22;44579;51.672;7.834;2022-11-15T05:02:47;10.60;86.10
58809;DHT22;44579;51.672;7.834;2022-11-15T05:05:57;10.60;86.10
58809;DHT22;44579;51.672;7.834;2022-11-15T05:08:45;10.60;86.10
58809;DHT22;44579;51.672;7.834;2022-11-15T05:11:31;10.60;86.20
58809;DHT22;44579;51.672;7.834;2022-11-15T05:14:16;10.60;86.20
58809;DHT22;44579;51.672;7.834;2022-11-15T05:17:02;10.60;86.30
58809;DHT22;44579;51.672;7.834;2022-11-15T05:19:48;10.70;86.30
58809;DHT22;44579;51.672;7.834;2022-11-15T05:22:34;10.70;86.30
58809;DHT22;44579;51.672;7.834;2022-11-15T05:25:19;10.80;86.40
58809;DHT22;44579;51.672;7.834;2022-11-15T05:28:05;10.80;86.30
58809;DHT22;44579;51.672;7.834;2022-11-15T05:31:08;10.80;86.30
58809;DHT22;44579;51.672;7.834;2022-11-15T05:33:55;10.90;86.20
58809;DHT22;44579;51.672;7.834;2022-11-15T05:36:44;10.90;86.10
58809;DHT22;44579;51.672;7.834;2022-11-15T05:39:30;11.00;86.10
58809;DHT22;44579;51.672;7.834;2022-11-15T05:42:17;11.00;86.10
58809;DHT22;44579;51.672;7.834;2022-11-15T05:45:04;11.00;86.20
58809;DHT22;44579;51.672;7.834;2022-11-15T05:47:52;11.10;87.30
58809;DHT22;44579;51.672;7.834;2022-11-15T05:50:42;11.10;86.20
58809;DHT22;44579;51.672;7.834;2022-11-15T05:53:29;11.10;86.30
58809;DHT22;44579;51.672;7.834;2022-11-15T05:56:16;11.10;86.40
58809;DHT22;44579;51.672;7.834;2022-11-15T05:59:02;11.10;86.50
58809;DHT22;44579;51.672;7.834;2022-11-15T06:01:48;11.10;86.60
58809;DHT22;44579;51.672;7.834;2022-11-15T06:04:34;11.10;86.60
58809;DHT22;44579;51.672;7.834;2022-11-15T06:07:19;11.10;86.60
58809;DHT22;44579;51.672;7.834;2022-11-15T06:10:06;11.10;86.60
58809;DHT22;44579;51.672;7.834;2022-11-15T06:12:58;11.20;86.60
58809;DHT22;44579;51.672;7.834;2022-11-15T06:15:44;11.20;86.40
58809;DHT22;44579;51.672;7.834;2022-11-15T06:18:32;11.20;86.30
58809;DHT22;44579;51.672;7.834;2022-11-15T06:21:18;11.30;86.20
58809;DHT22;44579;51.672;7.834;2022-11-15T06:24:06;11.30;86.10
58809;DHT22;44579;51.672;7.834;2022-11-15T06:26:52;11.30;86.20
58809;DHT22;44579;51.672;7.834;2022-11-15T06:29:39;11.30;86.20
58809;DHT22;44579;51.672;7.834;2022-11-15T06:32:25;11.30;86.30
58809;DHT22;44579;51.672;7.834;2022-11-15T06:35:11;11.40;86.40
58809;DHT22;44579;51.672;7.834;2022-11-15T06:38:06;11.40;86.40
58809;DHT22;44579;51.672;7.834;2022-11-15T06:40:51;11.40;86.40
58809;DHT22;44579;51.672;7.834;2022-11-15T06:43:39;11.40;86.40
58809;DHT22;44579;51.672;7.834;2022-11-15T06:46:24;11.40;86.50
58809;DHT22;44579;51.672;7.834;2022-11-15T06:49:10;11.40;86.60
58809;DHT22;44579;51.672;7.834;2022-11-15T06:51:55;11.30;86.60
58809;DHT22;44579;51.672;7.834;2022-11-15T06:54:41;11.30;86.60
58809;DHT22;44579;51.672;7.834;2022-11-15T06:57:26;11.30;86.60
58809;DHT22;44579;51.672;7.834;2022-11-15T07:00:14;11.30;86.70
58809;DHT22;44579;51.672;7.834;2022-11-15T07:03:00;11.20;86.80
58809;DHT22;44579;51.672;7.834;2022-11-15T07:05:59;11.20;86.80
58809;DHT22;44579;51.672;7.834;2022-11-15T07:08:52;11.20;86.90
58809;DHT22;44579;51.672;7.834;2022-11-15T07:11:38;11.20;87.00
58809;DHT22;44579;51.672;7.834;2022-11-15T07:14:25;11.20;87.00
58809;DHT22;44579;51.672;7.834;2022-11-15T07:17:13;11.30;87.10
58809;DHT22;44579;51.672;7.834;2022-11-15T07:19:59;11.30;87.20
58809;DHT22;44579;51.672;7.834;2022-11-15T07:22:45;11.30;87.00
58809;DHT22;44579;51.672;7.834;2022-11-15T07:25:31;11.40;86.90
58809;DHT22;44579;51.672;7.834;2022-11-15T07:28:18;11.40;86.70
58809;DHT22;44579;51.672;7.834;2022-11-15T07:31:06;11.50;86.70
58809;DHT22;44579;51.672;7.834;2022-11-15T07:33:52;11.50;86.70
58809;DHT22;44579;51.672;7.834;2022-11-15T07:36:38;11.60;86.60
58809;DHT22;44579;51.672;7.834;2022-11-15T07:39:23;11.60;86.50
58809;DHT22;44579;51.672;7.834;2022-11-15T07:42:10;11.70;86.30
58809;DHT22;44579;51.672;7.834;2022-11-15T07:45:14;11.70;86.30
58809;DHT22;44579;51.672;7.834;2022-11-15T07:48:00;11.80;86.50
58809;DHT22;44579;51.672;7.834;2022-11-15T07:50:46;11.80;87.40
58809;DHT22;44579;51.672;7.834;2022-11-15T07:53:32;11.90;86.40
58809;DHT22;44579;51.672;7.834;2022-11-15T07:56:18;12.00;86.40
58809;DHT22;44579;51.672;7.834;2022-11-15T07:59:06;12.10;86.40
58809;DHT22;44579;51.672;7.834;2022-11-15T08:01:51;12.10;86.20
58809;DHT22;44579;51.672;7.834;2022-11-15T08:04:37;12.20;86.30
58809;DHT22;44579;51.672;7.834;2022-11-15T08:07:23;12.20;86.30
58809;DHT22;44579;51.672;7.834;2022-11-15T08:10:08;12.20;86.30
58809;DHT22;44579;51.672;7.834;2022-11-15T08:13:13;12.30;86.30
58809;DHT22;44579;51.672;7.834;2022-11-15T08:16:02;12.30;86.20
58809;DHT22;44579;51.672;7.834;2022-11-15T08:18:50;12.30;86.20
58809;DHT22;44579;51.672;7.834;2022-11-15T08:21:36;12.20;86.10
58809;DHT22;44579;51.672;7.834;2022-11-15T08:24:22;12.20;86.20
58809;DHT22;44579;51.672;7.834;2022-11-15T08:27:08;12.20;86.30
58809;DHT22;44579;51.672;7.834;2022-11-15T08:30:00;12.20;86.20
58809;DHT22;44579;51.672;7.834;2022-11-15T08:32:47;12.20;86.10
58809;DHT22;44579;51.672;7.834;2022-11-15T08:35:33;12.20;86.20
58809;DHT22;44579;51.672;7.834;2022-11-15T08:38:19;12.20;87.00
58809;DHT22;44579;51.672;7.834;2022-11-15T08:41:04;12.30;86.20
58809;DHT22;44579;51.672;7.834;2022-11-15T08:43:51;12.30;86.10
58809;DHT22;44579;51.672;7.834;2022-11-15T08:46:37;12.30;86.00
58809;DHT22;44579;51.672;7.834;2022-11-15T08:49:22;12.40;86.10
58809;DHT22;44579;51.672;7.834;2022-11-15T08:52:08;12.40;85.90
58809;DHT22;44579;51.672;7.834;2022-11-15T08:54:54;12.40;85.90
58809;DHT22;44579;51.672;7.834;2022-11-15T08:57:40;12.50;85.80
58809;DHT22;44579;51.672;7.834;2022-11-15T09:00:25;12.50;85.80
58809;DHT22;44579;51.672;7.834;2022-11-15T09:03:11;12.50;85.80
58809;DHT22;44579;51.672;7.834;2022-11-15T09:05:57;12.60;85.80
58809;DHT22;44579;51.672;7.834;2022-11-15T09:08:43;12.60;85.80
58809;DHT22;44579;51.672;7.834;2022-11-15T09:11:33;12.60;85.70
58809;DHT22;44579;51.672;7.834;2022-11-15T09:14:18;12.70;85.80
58809;DHT22;44579;51.672;7.834;2022-11-15T09:17:07;12.70;85.70
58809;DHT22;44579;51.672;7.834;2022-11-15T09:19:53;12.80;85.60
58809;DHT22;44579;51.672;7.834;2022-11-15T09:22:39;12.80;85.50
58809;DHT22;44579;51.672;7.834;2022-11-15T09:25:24;12.80;85.40
58809;DHT22;44579;51.672;7.834;2022-11-15T09:28:10;12.90;85.60
58809;DHT22;44579;51.672;7.834;2022-11-15T09:30:57;12.90;85.50
58809;DHT22;44579;51.672;7.834;2022-11-15T09:33:47;12.90;85.50
58809;DHT22;44579;51.672;7.834;2022-11-15T09:36:32;13.00;85.50
58809;DHT22;44579;51.672;7.834;2022-11-15T09:39:18;13.00;85.40
58809;DHT22;44579;51.672;7.834;2022-11-15T09:45:22;13.10;86.30
58809;DHT22;44579;51.672;7.834;2022-11-15T09:48:41;13.10;85.40
58809;DHT22;44579;51.672;7.834;2022-11-15T09:51:36;13.20;85.50
58809;DHT22;44579;51.672;7.834;2022-11-15T09:54:05;13.20;85.50
58809;DHT22;44579;51.672;7.834;2022-11-15T09:57:09;13.20;85.40
58809;DHT22;44579;51.672;7.834;2022-11-15T10:05:50;13.40;85.30
58809;DHT22;44579;51.672;7.834;2022-11-15T10:11:06;13.50;85.10
58809;DHT22;44579;51.672;7.834;2022-11-15T10:14:02;13.60;85.00
58809;DHT22;44579;51.672;7.834;2022-11-15T10:16:56;13.60;84.90
58809;DHT22;44579;51.672;7.834;2022-11-15T10:19:40;13.60;84.90
58809;DHT22;44579;51.672;7.834;2022-11-15T10:22:24;13.70;85.10
58809;DHT22;44579;51.672;7.834;2022-11-15T10:27:58;13.80;85.00
58809;DHT22;44579;51.672;7.834;2022-11-15T10:30:47;13.80;85.00
58809;DHT22;44579;51.672;7.834;2022-11-15T10:33:35;13.80;84.80
58809;DHT22;44579;51.672;7.834;2022-11-15T10:43:43;13.80;85.00
58809;DHT22;44579;51.672;7.834;2022-11-15T10:46:23;13.90;85.00
58809;DHT22;44579;51.672;7.834;2022-11-15T10:49:14;13.90;84.90
58809;DHT22;44579;51.672;7.834;2022-11-15T10:51:46;14.00;84.80
58809;DHT22;44579;51.672;7.834;2022-11-15T10:54:23;14.00;84.60
58809;DHT22;44579;51.672;7.834;2022-11-15T10:56:54;14.10;84.50
58809;DHT22;44579;51.672;7.834;2022-11-15T10:59:31;14.10;84.50
58809;DHT22;44579;51.672;7.834;2022-11-15T11:02:26;14.10;84.30
58809;DHT22;44579;51.672;7.834;2022-11-15T11:04:54;14.10;84.20
58809;DHT22;44579;51.672;7.834;2022-11-15T11:07:30;14.20;84.30
58809;DHT22;44579;51.672;7.834;2022-11-15T11:10:19;14.20;84.20
58809;DHT22;44579;51.672;7.834;2022-11-15T11:13:14;14.20;84.10
58809;DHT22;44579;51.672;7.834;2022-11-15T11:15:45;14.20;84.10
58809;DHT22;44579;51.672;7.834;2022-11-15T11:18:27;14.20;83.90
58809;DHT22;44579;51.672;7.834;2022-11-15T11:20:59;14.10;83.80
58809;DHT22;44579;51.672;7.834;2022-11-15T11:34:25;14.00;83.80
58809;DHT22;44579;51.672;7.834;2022-11-15T11:37:28;14.00;83.80
58809;DHT22;44579;51.672;7.834;2022-11-15T11:42:58;14.00;83.50
58809;DHT22;44579;51.672;7.834;2022-11-15T11:48:38;13.90;83.40
58809;DHT22;44579;51.672;7.834;2022-11-15T11:51:24;13.90;83.40
58809;DHT22;44579;51.672;7.834;2022-11-15T11:53:59;13.90;83.20
58809;DHT22;44579;51.672;7.834;2022-11-15T11:56:39;14.00;83.30
58809;DHT22;44579;51.672;7.834;2022-11-15T11:59:12;14.00;83.10
58809;DHT22;44579;51.672;7.834;2022-11-15T12:01:44;14.00;83.10
58809;DHT22;44579;51.672;7.834;2022-11-15T12:04:20;14.00;82.90
58809;DHT22;44579;51.672;7.834;2022-11-15T12:07:05;14.00;82.90
58809;DHT22;44579;51.672;7.834;2022-11-15T12:09:58;14.10;82.80
58809;DHT22;44579;51.672;7.834;2022-11-15T12:15:20;14.00;82.80
58809;DHT22;44579;51.672;7.834;2022-11-15T12:17:48;14.10;82.80
58809;DHT22;44579;51.672;7.834;2022-11-15T12:20:18;14.10;82.70
58809;DHT22;44579;51.672;7.834;2022-11-15T12:25:52;14.20;82.50
58809;DHT22;44579;51.672;7.834;2022-11-15T12:28:35;14.20;82.40
58809;DHT22;44579;51.672;7.834;2022-11-15T12:31:39;14.20;82.40
58809;DHT22;44579;51.672;7.834;2022-11-15T12:36:50;14.20;82.40
58809;DHT22;44579;51.672;7.834;2022-11-15T12:39:18;14.20;82.40
58809;DHT22;44579;51.672;7.834;2022-11-15T12:47:00;14.20;82.30
58809;DHT22;44579;51.672;7.834;2022-11-15T12:59:56;14.20;82.00
58809;DHT22;44579;51.672;7.834;2022-11-15T13:02:37;14.20;82.00
58809;DHT22;44579;51.672;7.834;2022-11-15T13:10:33;14.10;81.80
58809;DHT22;44579;51.672;7.834;2022-11-15T13:13:08;14.20;81.80
58809;DHT22;44579;51.672;7.834;2022-11-15T13:15:55;14.10;81.70
58809;DHT22;44579;51.672;7.834;2022-11-15T13:18:39;14.20;81.60
58809;DHT22;44579;51.672;7.834;2022-11-15T13:21:23;14.20;81.60
58809;DHT22;44579;51.672;7.834;2022-11-15T13:24:12;14.10;81.40
58809;DHT22;44579;51.672;7.834;2022-11-15T13:26:40;14.20;81.40
58809;DHT22;44579;51.672;7.834;2022-11-15T13:29:16;14.20;81.40
58809;DHT22;44579;51.672;7.834;2022-11-15T13:31:44;14.20;81.20
58809;DHT22;44579;51.672;7.834;2022-11-15T13:34:26;14.20;81.10
58809;DHT22;44579;51.672;7.834;2022-11-15T13:39:48;14.20;80.90
58809;DHT22;44579;51.672;7.834;2022-11-15T13:42:17;14.20;80.80
58809;DHT22;44579;51.672;7.834;2022-11-15T13:45:05;14.20;80.80
58809;DHT22;44579;51.672;7.834;2022-11-15T13:47:32;14.10;80.70
58809;DHT22;44579;51.672;7.834;2022-11-15T13:49:59;14.10;80.80
58809;DHT22;44579;51.672;7.834;2022-11-15T13:52:39;14.10;80.70
58809;DHT22;44579;51.672;7.834;2022-11-15T13:55:13;14.10;80.70
58809;DHT22;44579;51.672;7.834;2022-11-15T13:57:46;14.10;80.60
58809;DHT22;44579;51.672;7.834;2022-11-15T14:00:37;14.10;80.60
58809;DHT22;44579;51.672;7.834;2022-11-15T14:06:06;14.10;80.60
58809;DHT22;44579;51.672;7.834;2022-11-15T14:08:35;14.00;80.40
58809;DHT22;44579;51.672;7.834;2022-11-15T14:11:19;14.00;80.60
58809;DHT22;44579;51.672;7.834;2022-11-15T14:14:12;13.90;80.40
58809;DHT22;44579;51.672;7.834;2022-11-15T14:16:44;13.90;80.50
58809;DHT22;44579;51.672;7.834;2022-11-15T14:22:11;13.80;80.60
58809;DHT22;44579;51.672;7.834;2022-11-15T14:24:38;13.80;80.60
58809;DHT22;44579;51.672;7.834;2022-11-15T14:27:23;13.80;81.50
58809;DHT22;44579;51.672;7.834;2022-11-15T14:29:51;13.80;80.60
58809;DHT22;44579;51.672;7.834;2022-11-15T14:32:22;13.70;80.50
58809;DHT22;44579;51.672;7.834;2022-11-15T14:34:54;13.80;80.60
58809;DHT22;44579;51.672;7.834;2022-11-15T14:37:30;13.60;80.70
58809;DHT22;44579;51.672;7.834;2022-11-15T14:40:05;13.60;80.60
58809;DHT22;44579;51.672;7.834;2022-11-15T14:42:32;13.60;80.60
58809;DHT22;44579;51.672;7.834;2022-11-15T14:44:59;13.60;80.70
58809;DHT22;44579;51.672;7.834;2022-11-15T14:47:26;13.50;80.50
58809;DHT22;44579;51.672;7.834;2022-11-15T14:49:53;13.50;80.60
58809;DHT22;44579;51.672;7.834;2022-11-15T14:52:29;13.40;80.60
58809;DHT22;44579;51.672;7.834;2022-11-15T14:54:59;13.40;80.60
58809;DHT22;44579;51.672;7.834;2022-11-15T14:57:29;13.40;80.60
58809;DHT22;44579;51.672;7.834;2022-11-15T14:59:55;13.30;80.50
58809;DHT22;44579;51.672;7.834;2022-11-15T15:02:38;13.30;80.50
58809;DHT22;44579;51.672;7.834;2022-11-15T15:05:29;13.30;80.50
58809;DHT22;44579;51.672;7.834;2022-11-15T15:07:57;13.30;80.40
58809;DHT22;44579;51.672;7.834;2022-11-15T15:10:25;13.20;80.40
58809;DHT22;44579;51.672;7.834;2022-11-15T15:13:23;13.20;80.40
58809;DHT22;44579;51.672;7.834;2022-11-15T15:15:51;13.20;80.50
58809;DHT22;44579;51.672;7.834;2022-11-15T15:18:19;13.10;80.50
58809;DHT22;44579;51.672;7.834;2022-11-15T15:20:57;13.10;80.50
58809;DHT22;44579;51.672;7.834;2022-11-15T15:23:26;13.10;80.40
58809;DHT22;44579;51.672;7.834;2022-11-15T15:25:56;13.00;80.40
58809;DHT22;44579;51.672;7.834;2022-11-15T15:28:23;12.90;80.30
58809;DHT22;44579;51.672;7.834;2022-11-15T15:30:54;12.90;80.40
58809;DHT22;44579;51.672;7.834;2022-11-15T15:33:21;12.80;80.30
58809;DHT22;44579;51.672;7.834;2022-11-15T15:35:48;12.80;80.30
58809;DHT22;44579;51.672;7.834;2022-11-15T15:38:15;12.70;80.20
58809;DHT22;44579;51.672;7.834;2022-11-15T15:40:42;12.70;80.20
58809;DHT22;44579;51.672;7.834;2022-11-15T15:43:09;12.60;80.10
58809;DHT22;44579;51.672;7.834;2022-11-15T15:45:39;12.50;80.10
58809;DHT22;44579;51.672;7.834;2022-11-15T15:48:10;12.50;80.10
58809;DHT22;44579;51.672;7.834;2022-11-15T15:50:38;12.50;80.20
58809;DHT22;44579;51.672;7.834;2022-11-15T15:53:05;12.40;80.10
58809;DHT22;44579;51.672;7.834;2022-11-15T15:55:32;12.40;80.20
58809;DHT22;44579;51.672;7.834;2022-11-15T15:57:59;12.30;80.10
58809;DHT22;44579;51.672;7.834;2022-11-15T16:00:25;12.40;80.30
58809;DHT22;44579;51.672;7.834;2022-11-15T16:02:53;12.30;80.20
58809;DHT22;44579;51.672;7.834;2022-11-15T16:05:21;12.30;80.20
58809;DHT22;44579;51.672;7.834;2022-11-15T16:07:49;12.30;80.20
58809;DHT22;44579;51.672;7.834;2022-11-15T16:10:32;12.30;80.10
58809;DHT22;44579;51.672;7.834;2022-11-15T16:13:06;12.30;80.00
58809;DHT22;44579;51.672;7.834;2022-11-15T16:15:35;12.40;80.10
58809;DHT22;44579;51.672;7.834;2022-11-15T16:18:03;12.40;80.10
58809;DHT22;44579;51.672;7.834;2022-11-15T16:20:45;12.40;80.00
58809;DHT22;44579;51.672;7.834;2022-11-15T16:23:13;12.40;79.90
58809;DHT22;44579;51.672;7.834;2022-11-15T16:25:49;12.40;80.00
58809;DHT22;44579;51.672;7.834;2022-11-15T16:28:19;12.40;79.90
58809;DHT22;44579;51.672;7.834;2022-11-15T16:30:47;12.40;79.90
58809;DHT22;44579;51.672;7.834;2022-11-15T16:33:22;12.40;80.70
58809;DHT22;44579;51.672;7.834;2022-11-15T16:35:49;12.40;79.80
58809;DHT22;44579;51.672;7.834;2022-11-15T16:38:16;12.40;79.80
58809;DHT22;44579;51.672;7.834;2022-11-15T16:40:43;12.40;79.70
58809;DHT22;44579;51.672;7.834;2022-11-15T16:43:10;12.40;79.60
58809;DHT22;44579;51.672;7.834;2022-11-15T16:45:37;12.40;79.60
58809;DHT22;44579;51.672;7.834;2022-11-15T16:48:04;12.40;79.60
58809;DHT22;44579;51.672;7.834;2022-11-15T16:50:34;12.40;79.60
58809;DHT22;44579;51.672;7.834;2022-11-15T16:53:07;12.40;79.60
58809;DHT22;44579;51.672;7.834;2022-11-15T16:55:33;12.40;79.60
58809;DHT22;44579;51.672;7.834;2022-11-15T16:58:00;12.40;79.60
58809;DHT22;44579;51.672;7.834;2022-11-15T17:00:27;12.40;79.60
58809;DHT22;44579;51.672;7.834;2022-11-15T17:02:54;12.40;79.60
58809;DHT22;44579;51.672;7.834;2022-11-15T17:05:23;12.40;79.70
58809;DHT22;44579;51.672;7.834;2022-11-15T17:07:50;12.40;79.60
58809;DHT22;44579;51.672;7.834;2022-11-15T17:10:24;12.40;79.70
58809;DHT22;44579;51.672;7.834;2022-11-15T17:12:52;12.40;79.70
58809;DHT22;44579;51.672;7.834;2022-11-15T17:15:21;12.40;79.70
58809;DHT22;44579;51.672;7.834;2022-11-15T17:17:52;12.40;79.70
58809;DHT22;44579;51.672;7.834;2022-11-15T17:20:22;12.40;79.70
58809;DHT22;44579;51.672;7.834;2022-11-15T17:22:49;12.40;79.70
58809;DHT22;44579;51.672;7.834;2022-11-15T17:25:17;12.40;79.80
58809;DHT22;44579;51.672;7.834;2022-11-15T17:27:43;12.40;79.80
58809;DHT22;44579;51.672;7.834;2022-11-15T17:30:12;12.40;79.80
58809;DHT22;44579;51.672;7.834;2022-11-15T17:32:41;12.40;79.80
58809;DHT22;44579;51.672;7.834;2022-11-15T17:35:10;12.40;79.80
58809;DHT22;44579;51.672;7.834;2022-11-15T17:37:42;12.40;79.80
58809;DHT22;44579;51.672;7.834;2022-11-15T17:40:10;12.40;79.80
58809;DHT22;44579;51.672;7.834;2022-11-15T17:42:40;12.40;79.80
58809;DHT22;44579;51.672;7.834;2022-11-15T17:45:08;12.40;79.80
58809;DHT22;44579;51.672;7.834;2022-11-15T17:47:36;12.40;79.90
58809;DHT22;44579;51.672;7.834;2022-11-15T17:50:03;12.40;79.90
58809;DHT22;44579;51.672;7.834;2022-11-15T17:52:30;12.40;79.90
58809;DHT22;44579;51.672;7.834;2022-11-15T17:54:58;12.40;80.10
58809;DHT22;44579;51.672;7.834;2022-11-15T17:57:25;12.40;80.10
58809;DHT22;44579;51.672;7.834;2022-11-15T17:59:52;12.40;80.10
58809;DHT22;44579;51.672;7.834;2022-11-15T18:02:19;12.40;80.10
58809;DHT22;44579;51.672;7.834;2022-11-15T18:04:46;12.40;80.10
58809;DHT22;44579;51.672;7.834;2022-11-15T18:07:13;12.40;80.10
58809;DHT22;44579;51.672;7.834;2022-11-15T18:09:40;12.50;80.20
58809;DHT22;44579;51.672;7.834;2022-11-15T18:12:10;12.40;80.10
58809;DHT22;44579;51.672;7.834;2022-11-15T18:14:37;12.40;80.10
58809;DHT22;44579;51.672;7.834;2022-11-15T18:17:04;12.40;80.10
58809;DHT22;44579;51.672;7.834;2022-11-15T18:19:31;12.40;80.10
58809;DHT22;44579;51.672;7.834;2022-11-15T18:21:59;12.40;80.10
58809;DHT22;44579;51.672;7.834;2022-11-15T18:24:32;12.40;80.10
58809;DHT22;44579;51.672;7.834;2022-11-15T18:27:02;12.40;80.20
58809;DHT22;44579;51.672;7.834;2022-11-15T18:29:30;12.40;80.10
58809;DHT22;44579;51.672;7.834;2022-11-15T18:31:58;12.40;80.10
58809;DHT22;44579;51.672;7.834;2022-11-15T18:34:26;12.40;80.10
58809;DHT22;44579;51.672;7.834;2022-11-15T18:37:00;12.40;80.10
58809;DHT22;44579;51.672;7.834;2022-11-15T18:39:28;12.50;80.20